HOURLY OBS INDEX

016

Northwest Pastoral

COOBER PEDY AIRPORT

Site: 016090
Alt: 225.0m
4km SW of COOBER PEDY


  Time     Wind        Temp  DP   Baro     Rain since   Rain past  Vis(m), Cloud(base in m), Weather
  local        km/h                         9am  last   hr   10m    
Wed 15:30  SSW 24/ 32  19.2  1.7  1021.0    0.0   0.0   0.0   0.0   10000 
Wed 16:00   SW 24/ 37  19.4  1.4  1021.0    0.0   0.0   0.0   0.0   10000 
Wed 16:30   SW 22/ 35  19.7  1.7  1021.0    0.0   0.0   0.0   0.0   10000 
Wed 17:00   SW 22/ 32  19.5  1.5  1021.1    0.0   0.0   0.0   0.0   10000 
Wed 17:30  SSW 22/ 33  19.1  1.1  1021.2    0.0   0.0   0.0   0.0   10000 
Wed 18:00  SSW 20/ 30  19.0  0.6  1021.5    0.0   0.0   0.0   0.0   10000 
Wed 18:30  SSW 17/ 24  18.3  0.4  1021.8    0.0   0.0   0.0   0.0   10000 
Wed 19:00  SSW 20/ 24  17.8  0.0  1022.2    0.0   0.0   0.0   0.0   10000 
Wed 19:30    S 17/ 20  17.1  0.3  1022.7    0.0   0.0   0.0   0.0   10000 
Wed 20:00    S 11/ 13  15.9 -0.3  1023.1    0.0   0.0   0.0   0.0   10000 
Wed 20:30    S 11/ 13  15.3 -0.1  1023.4    0.0   0.0   0.0   0.0   10000 
Wed 21:00    S 11/ 11  14.6 -0.3  1023.6    0.0   0.0   0.0   0.0   10000 

ERNABELLA (PUKATJA)

Site: 016097
Alt: 703.2m
354km WNW of OODNADATTA


  Time     Wind        Temp  DP   Baro     Rain since   Rain past  Vis(m), Cloud(base in m), Weather
  local        km/h                         9am  last   hr   10m    
Wed 15:30  SSE 15/ 24  18.8-13.4  1021.6    0.0   0.0   0.0   0.0   ----- 
Wed 16:00  SSE 13/ 20  19.3-14.3  1021.3    0.0   0.0   0.0   0.0   ----- 
Wed 16:30  SSE 13/ 32  19.8-13.9  1021.3    0.0   0.0   0.0   0.0   ----- 
Wed 17:00    S 17/ 26  19.1-13.2  1021.5    0.0   0.0   0.0   0.0   ----- 
Wed 17:30   SE 19/ 26  18.8-11.2  1021.7    0.0   0.0   0.0   0.0   ----- 
Wed 18:00   SE 19/ 26  17.9 -9.9  1021.8    0.0   0.0   0.0   0.0   ----- 
Wed 18:30  ESE 17/ 22  16.9 -8.3  1022.1    0.0   0.0   0.0   0.0   ----- 
Wed 19:00   SE 13/ 20  16.5 -6.5  1022.7    0.0   0.0   0.0   0.0   ----- 
Wed 19:30   SE 13/ 20  15.9 -6.4  1023.1    0.0   0.0   0.0   0.0   ----- 
Wed 20:00   SE 11/ 15  14.9 -5.5  1023.5    0.0   0.0   0.0   0.0   ----- 
Wed 20:30   SE 11/ 15  14.6 -4.7  1023.9    0.0   0.0   0.0   0.0   ----- 
Wed 21:00   SE 13/ 20  14.8 -4.0  1024.2    0.0   0.0   0.0   0.0   ----- 

ROXBY DOWNS (OLYMPIC DAM AERODROME)

Site: 016096
Alt: 98.5m
76km N of WOOMERA


  Time     Wind        Temp  DP   Baro     Rain since   Rain past  Vis(m), Cloud(base in m), Weather
  local        km/h                         9am  last   hr   10m    
Wed 15:30   SW 17/ 24  20.2  1.1  1019.8    0.0   0.0   0.0   0.0   10000 
Wed 16:00   SW 22/ 37  19.5  1.5  1020.0    0.0   0.0   0.0   0.0   10000 
Wed 16:30   SW 22/ 35  19.4  1.9  1020.0    0.0   0.0   0.0   0.0   10000 
Wed 17:00   SW 20/ 32  19.1  1.6  1020.0    0.0   0.0   0.0   0.0   10000 
Wed 17:30   SW 24/ 33  18.8  1.3  1020.3    0.0   0.0   0.0   0.0   10000 
Wed 18:00   SW 24/ 30  18.1  1.2  1020.6    0.0   0.0   0.0   0.0   10000 
Wed 18:30   SW 20/ 26  17.6  0.7  1021.0    0.0   0.0   0.0   0.0   10000 
Wed 19:00  SSW 11/ 17  16.8  0.9  1021.2    0.0   0.0   0.0   0.0   10000 
Wed 19:30  SSW  7/  9  15.2  0.2  1021.6    0.0   0.0   0.0   0.0   10000 
Wed 20:00  SSW  6/  7  13.0 -0.3  1021.8    0.0   0.0   0.0   0.0   10000 
Wed 20:30    C  0/  0  11.6 -2.9  1022.1    0.0   0.0   0.0   0.0   10000 
Wed 21:00   SW  6/  7  10.7 -2.0  1022.4    0.0   0.0   0.0   0.0   10000 

TARCOOLA AERO

Site: 016098
Alt: 123.0m
180km NNE of CEDUNA


  Time     Wind        Temp  DP   Baro     Rain since   Rain past  Vis(m), Cloud(base in m), Weather
  local        km/h                         9am  last   hr   10m    
Wed 15:30  SSW 20/ 39  20.9  1.7  1021.4    0.0   0.0   0.0   0.0   ----- 
Wed 16:00   SW 20/ 35  21.2  2.0  1021.3    0.0   0.0   0.0   0.0   ----- 
Wed 16:30   SW 26/ 35  20.7  2.0  1021.4    0.0   0.0   0.0   0.0   ----- 
Wed 17:00   SW 22/ 35  20.4  2.3  1021.6    0.0   0.0   0.0   0.0   ----- 
Wed 17:30   SW 24/ 33  19.5  1.9  1021.8    0.0   0.0   0.0   0.0   ----- 
Wed 18:00   SW 19/ 30  19.0  2.4  1022.1    0.0   0.0   0.0   0.0   ----- 
Wed 18:30  SSW 19/ 26  18.0  2.7  1022.5    0.0   0.0   0.0   0.0   ----- 
Wed 19:00  SSW 17/ 24  17.2  3.5  1022.8    0.0   0.0   0.0   0.0   ----- 
Wed 19:30  SSW 20/ 28  16.4  4.8  1023.2    0.0   0.0   0.0   0.0   ----- 
Wed 20:00  SSW 17/ 20  15.5  4.8  1023.7    0.0   0.0   0.0   0.0   ----- 
Wed 20:30  SSW 17/ 24  15.0  5.0  1024.2    0.0   0.0   0.0   0.0   ----- 
Wed 21:00    S 15/ 20  14.3  5.1  1024.6    0.0   0.0   0.0   0.0   ----- 

WOOMERA AERODROME

Site: 016001
Alt: 166.6m
1km NW of WOOMERA


  Time     Wind        Temp  DP   Baro     Rain since   Rain past  Vis(m), Cloud(base in m), Weather
  local        km/h                         9am  last   hr   10m    
Wed 15:30  WSW 22/ 32  18.5  1.5  1020.2    0.0   0.0   0.0   0.0   10000 
Wed 16:00  WSW 24/ 41  18.4  1.0  1020.4    0.0   0.0   0.0   0.0   10000 
Wed 16:30   SW 28/ 37  18.4  1.4  1020.4    0.0   0.0   0.0   0.0   10000 
Wed 17:00  SSW 26/ 37  18.1  1.2  1020.5    0.0   0.0   0.0   0.0   10000 
Wed 17:30  SSW 26/ 37  17.5  1.1  1020.7    0.0   0.0   0.0   0.0   10000 
Wed 18:00  SSW 20/ 28  17.3  1.3  1020.9    0.0   0.0   0.0   0.0   10000 
Wed 18:30   SW 17/ 24  16.7  1.2  1021.0    0.0   0.0   0.0   0.0   10000 
Wed 19:00   SW 15/ 19  16.1  1.4  1021.2    0.0   0.0   0.0   0.0   10000 
Wed 19:30  SSW 15/ 19  15.6  1.7  1021.6    0.0   0.0   0.0   0.0   10000 
Wed 20:00  WSW 15/ 17  14.7  1.6  1021.9    0.0   0.0   0.0   0.0   10000 
Wed 20:30  WSW 15/ 20  14.3  2.2  1022.4    0.0   0.0   0.0   0.0   10000 
Wed 21:00   SW 20/ 24  14.7  3.5  1022.7    0.0   0.0   0.0   0.0   10000